Aeroporto :
LOGIN :

Iscrizione | Disclaimer

   EN    FR    IT 

 










Sommario :    VFR   VFR Marginale   IFR   IFR Intensivo   IFR Molto Intensivo
Visibilità : 
Base nubi : 
>= 8 km
>= 3000ft
5 / 8 km
1000 / 3000 ft
1500m / 5 km
500 / 1000 ft
800 / 1500m
200 / 500 ft
< 800m
< 200 ft
Simboli :   Temporali  Nebbia  Neve Forte  Precipitazioni Forti  Vento > 20 kt
SIGMETs :   Varie  Temporali  Ghiacco  Turbolenza  Onda orograficha  Ceneri Vulcaniche







- Altitudine del aeroporto : 502 ft
- Codice IATA : ORK


EICK - Cork

ULTIMO METAR :
  • 250530Z 29003KT 9999 FEW016 BKN036 06/04 Q1035 NOSIG

METARs OBSOLETI :
  • 250500Z 31004KT 9999 FEW016 BKN032 06/04 Q1035 NOSIG
  • 250430Z 29005KT 9999 FEW016 BKN032 06/04 Q1035 NOSIG
  • 250400Z 31005KT 9999 FEW016 05/04 Q1035 NOSIG
  • 250330Z 28004KT 9999 FEW018 SCT036 06/04 Q1035 NOSIG
  • 250300Z 30005KT 9999 FEW018 SCT036 06/04 Q1035 NOSIG

TAF TAF EICK
Valido dal 25 a 06 ore il 26 a 06 ore UTC


250500Z 2506/2606 32007KT 9999 FEW018 BKN030
BECMG 2508/2510 36007KT
BECMG 2510/2512 03007KT
BECMG 2514/2516 18006KT
BECMG 2516/2518 21008KT
BECMG 2520/2523 31005KT
PROB30
TEMPO 2604/2606 4000 BR
Nessun NOTAM noto per questo aeroporto.



MetMap, La meteo Aeronautica in un colpo d'occhio ! - Copyright ORBIFLY Dicembre 2007 - Disclaimer

ORBIFLY MET'MAP TEAM :

Programmazione e sviluppo : Alexandra Zaïnal
Concezione e sviluppo : Baudouin d'Aumeries
Co-Programmazione e sviluppo : Marc-Olivier Méhu
Supporto tecnico e logistico : Manuel Goepfert
Aiuto per la traduzione : Arnaldo La Scala

Contatto : metmap@orbifly.com




FONTI E CREDITI :

   NOAA